Time;durP1;ratioP1;P1;durP2;ratioP2;P2;SDS_P1;SDS_P2;PMS_P1;PMS_P2;Temp;Humidity;BMP_temperature;BMP_pressure;BME280_temperature;BME280_humidity;BME280_pressure;Samples;Min_cycle;Max_cycle;Signal;HPM_P1;HPM_P2
2023/05/22 00:02:23;;;;;;;9.20;2.13;;;;;;;19.75;42.10;98424.66;4907025;29;20099;-76
2023/05/22 00:04:49;;;;;;;3.35;1.80;;;;;;;19.70;41.88;98417.25;4938324;29;20051;-76
2023/05/22 00:07:15;;;;;;;6.28;2.28;;;;;;;19.66;41.64;98419.47;4938530;29;20062;-76
2023/05/22 00:09:40;;;;;;;4.03;1.65;;;;;;;19.67;41.63;98420.28;4922575;29;20069;-76
2023/05/22 00:12:06;;;;;;;10.40;2.35;;;;;;;19.64;41.22;98408.25;4922971;29;20380;-76
2023/05/22 00:14:32;;;;;;;6.43;1.85;;;;;;;19.68;40.96;98416.63;4938156;29;20118;-76
2023/05/22 00:16:58;;;;;;;7.63;1.85;;;;;;;19.62;40.77;98406.78;4955308;29;20035;-76
2023/05/22 00:19:24;;;;;;;7.00;2.00;;;;;;;19.63;40.71;98411.06;4923055;29;20053;-76
2023/05/22 00:21:50;;;;;;;4.40;2.13;;;;;;;19.59;40.50;98404.50;4936015;29;20067;-76
2023/05/22 00:24:15;;;;;;;5.63;2.05;;;;;;;19.60;40.38;98411.44;4936071;29;20507;-76
2023/05/22 00:26:41;;;;;;;3.00;1.80;;;;;;;19.60;40.44;98404.31;4920779;29;20044;-76
2023/05/22 00:29:06;;;;;;;5.75;2.00;;;;;;;19.57;40.47;98403.84;4937013;29;20044;-76
2023/05/22 00:31:32;;;;;;;7.18;2.40;;;;;;;19.57;40.38;98403.84;4937226;29;20040;-77
2023/05/22 00:33:58;;;;;;;4.00;1.95;;;;;;;19.51;40.30;98394.81;4937608;29;20127;-77
2023/05/22 00:36:23;;;;;;;3.90;2.00;;;;;;;19.49;40.28;98402.13;4920270;29;20040;-76
2023/05/22 00:38:49;;;;;;;5.53;1.95;;;;;;;19.46;40.17;98399.84;4936277;29;20044;-77
2023/05/22 00:41:15;;;;;;;4.25;1.85;;;;;;;19.48;40.21;98408.41;4920133;29;20048;-77
2023/05/22 00:43:40;;;;;;;5.63;2.20;;;;;;;19.41;39.98;98399.56;4935942;29;20039;-78
2023/05/22 00:46:08;;;;;;;5.78;2.45;;;;;;;19.36;40.21;98399.31;4920534;29;20412;-77
2023/05/22 00:48:34;;;;;;;4.05;1.90;;;;;;;19.32;40.16;98397.03;4919514;29;20448;-76
2023/05/22 00:50:59;;;;;;;6.80;2.10;;;;;;;19.31;40.07;98394.56;4904199;29;20043;-76
2023/05/22 00:53:26;;;;;;;4.07;2.13;;;;;;;19.31;40.10;98403.31;4920002;29;20071;-76
2023/05/22 00:55:52;;;;;;;6.47;2.33;;;;;;;19.32;40.03;98402.31;4920391;29;20094;-76
2023/05/22 00:58:18;;;;;;;5.25;2.17;;;;;;;19.32;40.02;98402.31;4920111;29;20040;-76
2023/05/22 01:00:45;;;;;;;7.28;2.00;;;;;;;19.38;39.94;98406.03;4935719;29;20070;-77
2023/05/22 01:03:11;;;;;;;5.43;2.25;;;;;;;19.35;40.15;98393.16;4935921;29;20511;-76
2023/05/22 01:05:36;;;;;;;5.30;2.25;;;;;;;19.39;40.20;98410.34;4920175;29;20060;-76
2023/05/22 01:08:02;;;;;;;7.50;2.33;;;;;;;19.40;40.21;98400.56;4935753;29;20043;-77
2023/05/22 01:10:28;;;;;;;6.93;2.10;;;;;;;19.40;40.19;98405.84;4935581;29;20040;-76
2023/05/22 01:13:21;;;;;;;5.43;2.10;;;;;;;19.40;40.10;98403.22;4919348;29;20043;-76
2023/05/22 01:15:49;;;;;;;4.07;2.10;;;;;;;19.38;40.41;98402.56;4936016;29;20130;-76
2023/05/22 01:18:40;;;;;;;3.72;2.17;;;;;;;19.35;40.50;98395.81;4919647;29;20113;-77
2023/05/22 01:21:29;;;;;;;6.43;2.13;;;;;;;19.29;40.56;98396.53;4915273;29;20163;-76
2023/05/22 01:24:25;;;;;;;6.95;2.17;;;;;;;19.29;40.72;98391.25;4902815;29;20107;-76
2023/05/22 01:27:33;;;;;;;5.80;2.33;;;;;;;19.32;40.88;98386.44;4915603;29;20056;-76
2023/05/22 01:30:37;;;;;;;5.88;2.40;;;;;;;19.29;40.70;98385.94;4877763;29;20060;-76
2023/05/22 01:33:03;;;;;;;4.70;2.25;;;;;;;19.32;40.87;98383.78;4804229;29;20047;-77
2023/05/22 01:35:28;;;;;;;5.65;2.30;;;;;;;19.33;40.73;98385.41;4804375;29;20042;-76
2023/05/22 01:37:54;;;;;;;4.95;2.33;;;;;;;19.34;40.86;98380.97;4804249;29;20051;-76
2023/05/22 01:40:19;;;;;;;6.68;2.40;;;;;;;19.33;40.72;98380.13;4803982;29;20050;-76
2023/05/22 01:42:45;;;;;;;4.35;2.03;;;;;;;19.33;40.65;98377.47;4803510;29;20055;-77
2023/05/22 01:45:11;;;;;;;5.88;2.47;;;;;;;19.32;40.79;98383.78;4803982;29;20496;-76
2023/05/22 01:47:36;;;;;;;3.53;2.00;;;;;;;19.33;40.82;98366.06;4804172;29;20074;-76
2023/05/22 01:50:03;;;;;;;5.18;2.40;;;;;;;19.35;40.76;98379.94;4804084;29;20150;-76
2023/05/22 01:52:34;;;;;;;9.05;2.58;;;;;;;19.34;40.89;98371.19;4803986;29;20055;-77
2023/05/22 01:55:02;;;;;;;3.67;2.10;;;;;;;19.31;40.92;98373.38;4803545;29;20049;-76
2023/05/22 01:57:31;;;;;;;;;;;;;;;19.34;40.74;98365.09;4799935;29;20093;-76
2023/05/22 02:00:10;;;;;;;7.43;4.05;;;;;;;19.29;40.83;98364.78;4785560;29;20318;-76
2023/05/22 02:02:37;;;;;;;9.35;5.40;;;;;;;19.30;40.85;98367.25;4757884;29;20043;-77
2023/05/22 02:05:03;;;;;;;7.55;5.30;;;;;;;19.28;40.77;98356.03;4846310;29;20037;-76
2023/05/22 02:07:30;;;;;;;11.77;6.40;;;;;;;19.27;40.88;98349.09;4913650;29;20163;-76
2023/05/22 02:09:56;;;;;;;11.32;5.57;;;;;;;19.26;40.65;98349.28;4919116;29;20048;-76
2023/05/22 02:12:22;;;;;;;9.85;4.93;;;;;;;19.27;41.06;98350.91;4934470;29;20113;-76
2023/05/22 02:14:47;;;;;;;8.27;4.65;;;;;;;19.25;40.51;98353.75;4918367;29;20487;-76
2023/05/22 02:17:13;;;;;;;9.90;5.03;;;;;;;19.24;40.81;98360.03;4918660;29;20099;-76
2023/05/22 02:19:38;;;;;;;10.52;4.78;;;;;;;19.25;40.54;98356.41;4933740;29;20083;-76
2023/05/22 02:22:04;;;;;;;8.07;4.35;;;;;;;19.27;40.63;98364.97;4917935;29;20468;-76
2023/05/22 02:24:30;;;;;;;10.00;4.70;;;;;;;19.27;40.59;98367.59;4918664;29;20067;-76
2023/05/22 02:26:56;;;;;;;10.93;4.85;;;;;;;19.25;40.64;98364.34;4918056;29;20080;-76
2023/05/22 02:29:22;;;;;;;15.88;4.30;;;;;;;19.20;40.76;98366.72;4934029;29;20562;-76
2023/05/22 02:31:48;;;;;;;11.38;4.32;;;;;;;19.26;40.63;98379.22;4918128;29;20106;-76
2023/05/22 02:34:13;;;;;;;10.13;3.35;;;;;;;19.20;40.51;98374.66;4934076;29;20419;-76
2023/05/22 02:36:39;;;;;;;9.15;3.38;;;;;;;19.16;40.83;98387.44;4934056;29;20107;-77
2023/05/22 02:39:05;;;;;;;6.85;2.80;;;;;;;19.19;40.95;98385.41;4933908;29;20127;-76
2023/05/22 02:41:30;;;;;;;7.15;3.03;;;;;;;19.16;40.98;98371.56;4935188;29;20535;-76
2023/05/22 02:43:56;;;;;;;7.00;3.03;;;;;;;19.23;41.11;98381.38;4917981;29;20115;-76
2023/05/22 02:46:21;;;;;;;5.30;2.90;;;;;;;19.24;41.14;98389.13;4933623;29;20148;-76
2023/05/22 02:48:47;;;;;;;12.15;2.95;;;;;;;19.27;40.88;98388.78;4902092;29;20555;-76
2023/05/22 02:51:12;;;;;;;10.52;3.00;;;;;;;19.27;41.21;98388.78;4934696;29;20048;-76
2023/05/22 02:53:40;;;;;;;6.00;2.83;;;;;;;19.29;41.28;98388.59;4934294;29;20044;-76
2023/05/22 02:56:11;;;;;;;6.77;2.90;;;;;;;19.31;41.19;98384.78;4918161;29;20047;-76
2023/05/22 02:58:37;;;;;;;5.55;2.78;;;;;;;19.36;41.26;98388.72;4903051;29;20044;-76
2023/05/22 03:01:05;;;;;;;3.92;2.85;;;;;;;19.38;41.72;98389.34;4934782;29;20036;-76
2023/05/22 03:03:32;;;;;;;6.55;3.15;;;;;;;19.34;41.88;98387.06;4933577;29;20067;-76
2023/05/22 03:06:00;;;;;;;5.72;2.60;;;;;;;19.30;41.84;98388.41;4933412;29;20048;-76
2023/05/22 03:08:29;;;;;;;7.13;2.38;;;;;;;19.27;41.73;98387.97;4933678;29;20032;-76
2023/05/22 03:10:57;;;;;;;4.97;2.70;;;;;;;19.24;41.73;98372.44;4918006;29;20040;-76
2023/05/22 03:13:23;;;;;;;7.40;2.67;;;;;;;19.27;42.09;98383.47;4921645;29;20027;-76
2023/05/22 03:15:48;;;;;;;11.15;2.67;;;;;;;19.33;41.81;98382.75;4921412;29;20031;-77
2023/05/22 03:18:15;;;;;;;6.35;2.75;;;;;;;19.39;41.85;98377.75;4938500;29;20492;-77
2023/05/22 03:20:40;;;;;;;6.63;2.38;;;;;;;19.37;41.97;98372.66;4921393;29;20059;-80
2023/05/22 03:23:06;;;;;;;5.40;2.60;;;;;;;19.42;41.71;98380.88;4936999;29;20044;-75
2023/05/22 03:25:31;;;;;;;9.10;2.58;;;;;;;19.50;41.66;98379.94;4921496;29;20429;-76
2023/05/22 03:27:57;;;;;;;7.85;2.55;;;;;;;19.54;41.46;98383.84;4936996;29;20077;-76
2023/05/22 03:30:22;;;;;;;6.03;2.20;;;;;;;19.58;41.38;98376.41;4937211;29;20035;-75
2023/05/22 03:32:48;;;;;;;6.72;2.55;;;;;;;19.65;41.28;98393.16;4905091;29;20098;-76
2023/05/22 03:35:18;;;;;;;10.98;2.42;;;;;;;19.68;41.43;98396.25;4915354;29;20040;-80
2023/05/22 03:37:44;;;;;;;7.65;2.85;;;;;;;19.70;41.39;98396.09;4936414;29;20035;-79
2023/05/22 03:40:11;;;;;;;9.07;2.58;;;;;;;19.77;41.41;98409.47;4936132;29;20511;-85
2023/05/22 03:42:37;;;;;;;10.35;2.80;;;;;;;19.80;41.17;98407.25;4936567;29;20110;-78
2023/05/22 03:45:03;;;;;;;6.10;2.50;;;;;;;19.79;41.37;98404.78;4936204;29;20122;-85
2023/05/22 03:47:28;;;;;;;5.55;2.40;;;;;;;19.86;41.25;98408.31;4936120;29;20122;-82
2023/05/22 03:49:54;;;;;;;4.97;2.97;;;;;;;20.12;55.13;98417.63;4937502;29;20047;-76
2023/05/22 03:52:20;;;;;;;10.73;2.72;;;;;;;20.41;54.86;98412.25;4938097;29;20032;-78
2023/05/22 03:54:46;;;;;;;13.80;3.08;;;;;;;20.60;53.67;98415.25;4921202;29;20099;-72
2023/05/22 03:57:11;;;;;;;6.93;2.80;;;;;;;20.81;52.97;98414.47;4936869;29;20401;-72
2023/05/22 03:59:37;;;;;;;7.10;3.08;;;;;;;20.99;52.15;98423.81;4920775;29;20059;-79
2023/05/22 04:02:03;;;;;;;6.53;3.00;;;;;;;21.06;51.43;98428.16;4920562;29;20039;-79
2023/05/22 04:04:31;;;;;;;11.23;3.80;;;;;;;21.14;50.11;98427.16;4938060;29;20062;-74
2023/05/22 04:06:56;;;;;;;8.73;4.78;;;;;;;21.27;50.07;98429.13;4938544;29;20035;-80
2023/05/22 04:09:25;;;;;;;15.20;4.50;;;;;;;21.36;48.94;98429.78;4904970;29;20050;-76
2023/05/22 04:11:52;;;;;;;8.02;4.15;;;;;;;21.41;48.30;98425.53;4937551;29;20561;-77
2023/05/22 04:14:17;;;;;;;14.73;4.18;;;;;;;21.46;48.16;98430.28;4920606;29;20102;-77
2023/05/22 04:16:43;;;;;;;8.98;4.47;;;;;;;21.50;47.20;98435.00;4904866;29;20043;-80
2023/05/22 04:19:08;;;;;;;7.88;3.80;;;;;;;21.61;45.74;98438.16;4936500;29;20051;-81
2023/05/22 04:21:34;;;;;;;13.38;4.25;;;;;;;21.74;45.02;98443.53;4952660;29;20083;-80
2023/05/22 04:24:00;;;;;;;13.85;4.70;;;;;;;22.10;43.34;98431.84;4907445;29;20039;-80
2023/05/22 04:26:28;;;;;;;14.35;4.40;;;;;;;23.15;39.98;98442.13;4939176;29;20043;-80
2023/05/22 04:28:54;;;;;;;8.65;3.88;;;;;;;24.25;37.26;98429.94;4939418;29;20126;-80
2023/05/22 04:31:21;;;;;;;7.90;3.80;;;;;;;25.27;34.86;98437.88;4939213;29;20536;-80
2023/05/22 04:33:48;;;;;;;9.20;3.45;;;;;;;24.97;34.82;98435.88;4956399;29;20066;-81
2023/05/22 04:36:14;;;;;;;12.13;3.28;;;;;;;25.03;34.27;98435.00;4923733;29;20479;-80
2023/05/22 04:38:40;;;;;;;16.52;9.30;;;;;;;24.78;34.93;98444.84;4923391;29;20043;-80
2023/05/22 04:41:07;;;;;;;23.48;14.23;;;;;;;24.65;34.88;98443.88;4923756;29;20372;-81
2023/05/22 04:43:33;;;;;;;21.00;12.10;;;;;;;24.48;35.13;98448.06;4939300;29;20125;-80
2023/05/22 04:45:59;;;;;;;20.05;8.82;;;;;;;24.32;35.37;98447.56;4956359;29;20515;-83
2023/05/22 04:48:24;;;;;;;25.70;8.45;;;;;;;24.24;35.40;98442.44;4939096;29;20039;-80
2023/05/22 04:50:50;;;;;;;12.98;7.90;;;;;;;24.18;35.61;98446.78;4938596;29;20042;-80
2023/05/22 04:53:16;;;;;;;17.23;6.55;;;;;;;24.05;35.61;98451.38;4939170;29;20080;-80
2023/05/22 04:55:42;;;;;;;21.30;6.32;;;;;;;23.91;36.10;98450.59;4939004;29;20054;-80
2023/05/22 04:58:07;;;;;;;21.75;7.30;;;;;;;23.77;36.43;98452.47;4907199;29;20491;-81
2023/05/22 05:00:34;;;;;;;24.38;6.90;;;;;;;23.68;36.68;98454.53;4923705;29;20488;-80
2023/05/22 05:02:59;;;;;;;22.42;6.68;;;;;;;23.59;36.82;98451.25;4923496;29;20047;-80
2023/05/22 05:05:25;;;;;;;18.00;6.00;;;;;;;23.55;37.21;98460.69;4921614;29;20047;-80
2023/05/22 05:07:50;;;;;;;14.65;5.18;;;;;;;23.49;37.57;98462.34;4921817;29;20396;-81
2023/05/22 05:10:16;;;;;;;10.77;5.07;;;;;;;23.44;37.78;98456.81;4936896;29;20058;-81
2023/05/22 05:12:42;;;;;;;14.35;4.97;;;;;;;23.47;37.94;98463.59;4904359;29;20059;-81
2023/05/22 05:15:09;;;;;;;21.98;4.80;;;;;;;23.47;37.89;98456.41;4904185;29;20143;-81
2023/05/22 05:17:35;;;;;;;17.13;4.75;;;;;;;23.60;37.85;98466.22;4921514;29;20551;-82
2023/05/22 05:20:00;;;;;;;12.65;4.60;;;;;;;24.13;37.04;98451.97;4926460;29;20067;-82
2023/05/22 05:22:26;;;;;;;19.45;4.60;;;;;;;24.03;37.01;98462.22;4917319;29;20031;-82
2023/05/22 05:24:52;;;;;;;19.60;4.43;;;;;;;24.01;36.96;98457.13;4922925;29;20142;-83
2023/05/22 05:27:18;;;;;;;11.93;3.83;;;;;;;24.05;36.73;98456.69;4937762;29;20415;-80
2023/05/22 05:29:44;;;;;;;13.95;3.50;;;;;;;24.10;36.60;98457.72;4915690;29;20047;-81
2023/05/22 05:32:11;;;;;;;14.23;3.33;;;;;;;24.16;36.83;98459.53;4923178;29;20070;-81
2023/05/22 05:34:36;;;;;;;10.25;3.40;;;;;;;24.16;36.85;98456.03;4917663;29;20130;-81
2023/05/22 05:37:02;;;;;;;17.65;3.55;;;;;;;24.26;36.87;98461.75;4904646;29;20494;-80
2023/05/22 05:39:27;;;;;;;14.57;3.40;;;;;;;24.27;36.77;98457.22;4901644;29;20044;-80
2023/05/22 05:41:53;;;;;;;8.60;3.17;;;;;;;24.32;36.69;98460.06;4913357;29;20035;-81
2023/05/22 05:44:18;;;;;;;10.73;3.20;;;;;;;24.44;36.75;98463.69;4922710;29;20107;-80
2023/05/22 05:46:44;;;;;;;11.50;3.50;;;;;;;24.52;36.15;98460.75;4911127;29;20071;-80
2023/05/22 05:49:10;;;;;;;19.80;3.55;;;;;;;24.67;35.96;98459.69;4919091;29;20047;-79
2023/05/22 05:51:36;;;;;;;7.65;3.15;;;;;;;24.99;36.05;98459.69;4919258;29;20042;-80
2023/05/22 05:54:03;;;;;;;15.27;3.65;;;;;;;25.38;34.42;98469.25;4919371;29;20040;-75
2023/05/22 05:56:28;;;;;;;13.73;3.60;;;;;;;25.54;33.64;98461.69;4903747;29;20067;-78
2023/05/22 05:58:54;;;;;;;10.82;3.30;;;;;;;25.58;33.53;98469.03;4918838;29;20427;-78
2023/05/22 06:01:23;;;;;;;15.15;3.45;;;;;;;25.65;33.43;98477.03;4936140;29;20127;-79
2023/05/22 06:03:49;;;;;;;13.13;3.20;;;;;;;25.97;32.42;98480.38;4918420;29;20415;-77
2023/05/22 06:06:16;;;;;;;12.82;3.00;;;;;;;26.13;32.28;98489.66;4918952;29;20044;-80
2023/05/22 06:08:44;;;;;;;7.82;3.45;;;;;;;26.18;31.28;98486.31;4919331;29;20036;-81
2023/05/22 06:11:18;;;;;;;16.98;4.20;;;;;;;26.21;32.40;98485.06;4924251;29;20124;-90
2023/05/22 06:13:44;;;;;;;13.48;4.25;;;;;;;26.35;31.79;98479.31;4940923;29;20529;-83
2023/05/22 06:16:11;;;;;;;14.25;4.05;;;;;;;26.47;32.42;98478.53;4920335;29;20122;-81
2023/05/22 06:18:36;;;;;;;13.38;3.53;;;;;;;26.70;31.71;98481.34;4918748;29;20040;-84
2023/05/22 06:21:02;;;;;;;16.88;4.07;;;;;;;27.26;30.81;98481.09;4919803;29;20056;-85
2023/05/22 06:23:28;;;;;;;16.25;4.15;;;;;;;27.69;30.16;98482.66;4909229;29;20514;-88
2023/05/22 06:25:55;;;;;;;14.43;3.83;;;;;;;28.50;28.93;98488.06;4944557;29;20046;-85
2023/05/22 06:28:22;;;;;;;13.45;3.78;;;;;;;28.54;28.27;98491.06;4926072;29;20039;-87
2023/05/22 06:30:48;;;;;;;12.07;3.65;;;;;;;28.83;28.04;98491.91;4908730;29;20055;-80
2023/05/22 06:33:18;;;;;;;11.63;3.53;;;;;;;28.72;27.73;98490.09;4924934;29;20054;-91
2023/05/22 06:35:50;;;;;;;9.60;3.28;;;;;;;28.58;28.19;98500.31;4952068;29;20064;-85
2023/05/22 06:38:15;;;;;;;15.35;3.70;;;;;;;28.37;28.07;98492.91;4926775;29;20039;-83
2023/05/22 06:40:41;;;;;;;10.35;3.55;;;;;;;28.18;28.56;98492.25;4924338;29;20054;-84
2023/05/22 06:43:07;;;;;;;13.82;3.80;;;;;;;28.00;29.13;98490.56;4925279;29;20039;-86
2023/05/22 06:45:37;;;;;;;8.43;3.60;;;;;;;27.80;29.43;98491.75;4930415;29;20491;-87
2023/05/22 06:48:05;;;;;;;14.27;4.10;;;;;;;27.65;29.78;98491.41;4922188;29;20040;-85
2023/05/22 06:50:32;;;;;;;18.40;3.97;;;;;;;27.46;30.09;98490.69;4923980;29;20036;-86
2023/05/22 06:52:57;;;;;;;20.15;4.45;;;;;;;27.31;30.47;98493.81;4905495;29;20043;-85
2023/05/22 06:55:23;;;;;;;12.02;4.45;;;;;;;27.11;30.57;98492.25;4905275;29;20044;-86
2023/05/22 06:57:49;;;;;;;17.95;4.80;;;;;;;26.96;31.05;98491.88;4905595;29;20142;-84
2023/05/22 07:00:15;;;;;;;15.70;4.57;;;;;;;26.87;31.17;98494.09;4923997;29;20050;-86
2023/05/22 07:02:42;;;;;;;15.43;4.50;;;;;;;26.75;31.60;98494.03;4909142;29;20543;-84
2023/05/22 07:05:08;;;;;;;18.50;4.80;;;;;;;26.63;31.64;98499.34;4905730;29;20040;-83
2023/05/22 07:07:33;;;;;;;16.73;4.63;;;;;;;26.47;31.29;98500.78;4920985;29;20268;-85
2023/05/22 07:09:59;;;;;;;13.23;4.28;;;;;;;26.46;31.79;98495.66;4905693;29;20048;-85
2023/05/22 07:12:26;;;;;;;14.60;4.18;;;;;;;26.38;31.42;98487.91;4904672;29;20139;-85
2023/05/22 07:14:51;;;;;;;17.77;4.57;;;;;;;26.45;32.01;98502.03;4906662;29;20047;-85
2023/05/22 07:17:20;;;;;;;14.07;4.53;;;;;;;26.45;31.82;98500.16;4909282;29;20044;-89
2023/05/22 07:19:47;;;;;;;14.10;3.80;;;;;;;26.49;32.12;98498.69;4923512;29;20043;-86
2023/05/22 07:22:13;;;;;;;15.20;4.28;;;;;;;26.50;32.13;98496.81;4922093;29;20040;-86
2023/05/22 07:24:38;;;;;;;14.68;4.53;;;;;;;26.65;31.63;98494.59;4906469;29;20043;-84
2023/05/22 07:27:04;;;;;;;9.23;4.03;;;;;;;26.81;31.45;98493.13;4907868;29;20044;-86
2023/05/22 07:29:29;;;;;;;18.70;4.03;;;;;;;27.05;31.10;98496.66;4921057;29;20055;-84
2023/05/22 07:31:55;;;;;;;12.02;4.07;;;;;;;27.29;31.08;98499.38;4923938;29;20056;-85
2023/05/22 07:34:21;;;;;;;18.08;4.47;;;;;;;27.49;31.05;98499.09;4924629;29;20047;-85
2023/05/22 07:36:47;;;;;;;17.10;4.45;;;;;;;27.70;30.60;98494.19;4907702;29;20036;-88
2023/05/22 07:39:13;;;;;;;15.23;3.92;;;;;;;28.37;29.53;98488.38;4908789;29;20103;-85
2023/05/22 07:41:39;;;;;;;18.08;4.05;;;;;;;28.99;28.62;98489.50;4907975;29;20032;-85
2023/05/22 07:44:04;;;;;;;14.23;4.40;;;;;;;29.10;28.97;98493.13;4926517;29;20046;-88
2023/05/22 07:46:31;;;;;;;18.77;4.13;;;;;;;29.40;28.23;98500.94;4908546;29;20048;-86
2023/05/22 07:48:58;;;;;;;14.88;3.80;;;;;;;29.61;26.92;98491.28;4923893;29;20044;-86
2023/05/22 07:51:24;;;;;;;15.45;3.78;;;;;;;30.11;27.21;98495.75;4907723;29;20043;-87
2023/05/22 07:53:50;;;;;;;14.48;3.53;;;;;;;30.89;26.15;98493.91;4924366;29;20075;-85
2023/05/22 07:56:16;;;;;;;11.82;3.50;;;;;;;31.46;25.35;98497.88;4939848;29;20071;-86
2023/05/22 07:58:42;;;;;;;10.80;2.83;;;;;;;32.04;24.78;98484.44;4941663;29;20131;-86
2023/05/22 08:01:09;;;;;;;8.70;3.83;;;;;;;32.58;23.42;98486.00;4926942;29;20072;-85
2023/05/22 08:03:35;;;;;;;10.50;3.13;;;;;;;32.94;23.08;98481.47;4910083;29;20522;-85
2023/05/22 08:06:02;;;;;;;16.48;3.80;;;;;;;33.26;22.36;98475.00;4907924;29;20067;-85
2023/05/22 08:08:27;;;;;;;14.97;3.50;;;;;;;33.47;22.55;98478.47;4907897;29;20042;-85
2023/05/22 08:10:53;;;;;;;12.80;3.60;;;;;;;33.61;21.74;98469.78;4908110;29;20272;-87
2023/05/22 08:13:19;;;;;;;13.43;3.40;;;;;;;33.62;21.15;98488.47;4908017;29;20520;-82
2023/05/22 08:15:44;;;;;;;10.13;3.47;;;;;;;33.77;20.51;98470.59;4907308;29;20415;-85
2023/05/22 08:18:10;;;;;;;12.27;3.30;;;;;;;33.90;21.38;98478.09;4907537;29;20495;-89
2023/05/22 08:20:37;;;;;;;10.85;3.25;;;;;;;33.83;21.79;98473.00;4909626;29;20051;-85
2023/05/22 08:23:02;;;;;;;10.57;2.53;;;;;;;33.89;21.37;98474.59;4909295;29;20415;-85
2023/05/22 08:25:28;;;;;;;12.73;2.90;;;;;;;34.35;20.77;98478.19;4907782;29;20036;-83
2023/05/22 08:27:53;;;;;;;8.50;2.67;;;;;;;34.53;19.86;98480.25;4923372;29;20074;-85
2023/05/22 08:30:20;;;;;;;7.20;2.42;;;;;;;34.48;19.89;98474.88;4908353;29;20050;-86
2023/05/22 08:32:45;;;;;;;8.90;2.58;;;;;;;34.20;20.14;98477.16;4909615;29;20055;-85
2023/05/22 08:35:13;;;;;;;9.20;2.42;;;;;;;34.23;20.24;98479.34;4922442;29;20043;-86
2023/05/22 08:37:40;;;;;;;11.65;2.42;;;;;;;34.30;20.08;98475.50;4908534;29;20036;-86
2023/05/22 08:40:10;;;;;;;9.55;2.63;;;;;;;34.21;20.34;98461.72;4924916;29;20043;-86
2023/05/22 08:42:35;;;;;;;7.80;2.40;;;;;;;34.13;19.87;98460.41;4924805;29;20492;-87
2023/05/22 08:45:01;;;;;;;10.43;2.25;;;;;;;34.03;20.35;98465.84;4908079;29;20047;-84
2023/05/22 08:47:27;;;;;;;11.10;2.20;;;;;;;33.94;20.22;98470.22;4922648;29;20039;-84
2023/05/22 08:49:54;;;;;;;10.50;2.25;;;;;;;33.59;20.64;98459.25;4910697;29;20107;-87
2023/05/22 08:52:37;;;;;;;12.15;2.70;;;;;;;33.08;21.25;98467.38;4910291;29;20043;-86
2023/05/22 08:55:06;;;;;;;5.72;2.33;;;;;;;32.82;22.09;98468.19;4909629;29;20508;-88
2023/05/22 08:57:32;;;;;;;6.32;2.50;;;;;;;32.89;22.22;98461.72;4907608;29;20058;-84
2023/05/22 08:59:57;;;;;;;7.40;2.50;;;;;;;32.64;22.84;98453.34;4908470;29;20047;-86
2023/05/22 09:02:23;;;;;;;9.43;2.58;;;;;;;32.71;22.72;98454.97;4909861;29;20529;-84
2023/05/22 09:04:48;;;;;;;11.98;2.47;;;;;;;32.71;22.74;98455.75;4908700;29;20526;-83
2023/05/22 09:07:14;;;;;;;8.90;2.65;;;;;;;32.19;23.30;98451.31;4910543;29;20044;-84
2023/05/22 09:09:39;;;;;;;9.88;2.65;;;;;;;32.12;23.21;98454.28;4907574;29;20103;-85
2023/05/22 09:12:09;;;;;;;13.88;2.83;;;;;;;32.24;23.36;98462.13;4924260;29;20416;-85
2023/05/22 09:14:42;;;;;;;7.70;2.42;;;;;;;32.41;22.94;98465.41;4924506;29;20039;-84
2023/05/22 09:17:09;;;;;;;13.50;2.85;;;;;;;32.55;23.16;98454.91;4908301;29;20518;-83
2023/05/22 09:19:35;;;;;;;;;;;;;;;32.45;23.07;98455.72;4908250;29;20118;-84
2023/05/22 09:22:04;;;;;;;5.22;2.05;;;;;;;32.37;22.94;98458.94;4939147;29;19918;-84
2023/05/22 09:24:30;;;;;;;7.03;2.40;;;;;;;32.52;23.12;98458.16;4907747;29;20235;-84
2023/05/22 09:26:55;;;;;;;6.95;2.20;;;;;;;32.41;23.09;98451.09;4907535;29;20558;-86
2023/05/22 09:29:21;;;;;;;6.35;2.30;;;;;;;32.22;23.34;98448.88;4923381;29;20103;-86
2023/05/22 09:31:47;;;;;;;5.63;2.28;;;;;;;32.09;23.41;98452.91;4924649;29;20044;-84
2023/05/22 09:34:16;;;;;;;8.23;2.08;;;;;;;31.47;24.11;98454.47;4921921;29;20043;-85
2023/05/22 09:36:42;;;;;;;7.95;2.03;;;;;;;31.31;24.12;98458.09;4909027;29;20471;-84
2023/05/22 09:39:08;;;;;;;6.22;2.50;;;;;;;30.96;24.67;98460.31;4906740;29;20032;-83
2023/05/22 09:41:35;;;;;;;5.03;2.20;;;;;;;30.47;25.44;98457.66;4907947;29;20117;-83
2023/05/22 09:44:03;;;;;;;;;;;;;;;30.04;26.28;98460.13;4925449;29;20040;-87
2023/05/22 09:46:29;;;;;;;;;;;;;;;29.71;26.47;98464.50;4907710;29;20034;-87
2023/05/22 09:48:54;;;;;;;6.30;2.28;;;;;;;29.63;26.74;98464.94;4907110;29;20370;-85
2023/05/22 09:51:23;;;;;;;5.28;2.50;;;;;;;29.57;26.92;98466.75;4906400;29;20111;-85
2023/05/22 09:53:48;;;;;;;6.53;2.78;;;;;;;29.71;27.33;98463.69;4905929;29;20035;-84
2023/05/22 09:56:14;;;;;;;6.03;2.40;;;;;;;29.80;27.39;98466.81;4907595;29;20052;-84
2023/05/22 09:58:40;;;;;;;8.50;2.30;;;;;;;29.90;27.57;98469.63;4906220;29;20078;-84
2023/05/22 10:01:09;;;;;;;6.10;2.35;;;;;;;30.01;28.06;98449.84;4921841;29;20047;-84
2023/05/22 10:03:34;;;;;;;5.63;2.13;;;;;;;30.25;28.22;98457.66;4906844;29;20043;-85
2023/05/22 10:06:00;;;;;;;5.13;1.98;;;;;;;30.49;28.32;98453.66;4907044;29;20047;-85
2023/05/22 10:08:29;;;;;;;5.68;2.13;;;;;;;30.74;28.26;98456.84;4905584;29;20050;-83
2023/05/22 10:10:54;;;;;;;5.60;2.40;;;;;;;30.96;28.35;98452.22;4922217;29;20050;-85
2023/05/22 10:13:20;;;;;;;5.38;2.17;;;;;;;31.11;28.14;98445.31;4907001;29;20499;-85
2023/05/22 10:15:49;;;;;;;7.30;2.47;;;;;;;31.32;27.77;98448.97;4922932;29;20042;-84
2023/05/22 10:18:16;;;;;;;6.80;2.17;;;;;;;31.55;27.26;98450.50;4922842;29;20044;-86
2023/05/22 10:20:41;;;;;;;6.80;1.90;;;;;;;31.59;26.68;98442.69;4919599;29;20481;-85
2023/05/22 10:23:08;;;;;;;6.10;2.30;;;;;;;31.74;26.16;98445.47;4920893;29;20067;-84
2023/05/22 10:25:36;;;;;;;9.85;2.17;;;;;;;31.82;25.64;98434.16;4920032;29;20035;-85
2023/05/22 10:28:02;;;;;;;5.72;2.10;;;;;;;31.83;26.01;98429.56;4906042;29;20083;-85
2023/05/22 10:30:50;;;;;;;4.97;2.40;;;;;;;31.73;25.61;98417.66;4919391;29;20484;-85
2023/05/22 10:33:21;;;;;;;7.22;2.08;;;;;;;31.64;26.15;98424.63;4919141;29;20535;-84
2023/05/22 10:36:33;;;;;;;8.00;2.47;;;;;;;31.55;25.91;98432.41;4904620;29;20136;-86
2023/05/22 10:39:24;;;;;;;6.03;2.38;;;;;;;31.38;25.75;98421.75;4884228;29;20040;-85
2023/05/22 10:41:50;;;;;;;5.28;2.33;;;;;;;31.05;26.29;98412.13;4844198;29;20046;-85
2023/05/22 10:44:16;;;;;;;8.90;2.55;;;;;;;30.79;26.33;98419.97;4799880;29;20042;-84
2023/05/22 10:46:47;;;;;;;12.95;2.60;;;;;;;30.44;27.21;98423.16;4800475;29;20077;-86
2023/05/22 10:49:25;;;;;;;7.10;2.45;;;;;;;30.20;28.14;98430.69;4829581;29;20567;-82
2023/05/22 10:51:56;;;;;;;;;;;;;;;29.93;29.59;98439.53;4813032;29;20081;-85
2023/05/22 10:54:42;;;;;;;8.43;2.47;;;;;;;29.65;31.12;98444.00;4842000;29;19913;-83
2023/05/22 10:57:16;;;;;;;6.05;2.88;;;;;;;29.38;32.89;98436.66;4812947;29;20052;-86
2023/05/22 10:59:42;;;;;;;7.63;2.90;;;;;;;28.98;34.26;98420.69;4813438;29;20114;-87
2023/05/22 11:02:44;;;;;;;10.88;3.55;;;;;;;28.81;36.71;98421.50;4826997;29;20038;-83
2023/05/22 11:05:41;;;;;;;12.38;3.80;;;;;;;28.69;38.14;98420.78;4772494;30;20146;-84
2023/05/22 11:08:10;;;;;;;12.30;3.50;;;;;;;28.49;39.33;98410.44;4787677;30;20039;-84
2023/05/22 11:10:57;;;;;;;14.98;3.97;;;;;;;28.49;39.75;98403.19;4798481;29;20137;-83
2023/05/22 11:13:26;;;;;;;;;;;;;;;28.63;39.78;98400.25;4824634;29;20054;-85
2023/05/22 11:15:53;;;;;;;8.35;2.90;;;;;;;28.72;40.43;98398.81;4823712;29;19913;-85
2023/05/22 11:18:18;;;;;;;10.13;3.08;;;;;;;28.72;41.16;98408.72;4828934;29;20060;-84
2023/05/22 11:20:44;;;;;;;9.93;3.10;;;;;;;28.76;41.20;98399.91;4810436;29;20069;-86
2023/05/22 11:23:09;;;;;;;8.77;3.10;;;;;;;28.81;41.56;98391.13;4826044;29;20083;-83
2023/05/22 11:25:38;;;;;;;10.68;3.40;;;;;;;28.89;40.88;98390.72;4812624;29;20121;-84
2023/05/22 11:28:04;;;;;;;5.93;2.70;;;;;;;28.97;40.72;98389.50;4828076;29;20144;-84
2023/05/22 11:30:30;;;;;;;6.40;2.90;;;;;;;28.88;41.04;98381.06;4825089;29;20429;-84
2023/05/22 11:32:59;;;;;;;5.55;2.75;;;;;;;28.82;41.33;98390.88;4831262;29;20037;-84
2023/05/22 11:35:25;;;;;;;11.55;2.60;;;;;;;28.62;41.68;98407.50;4840817;29;20112;-83